Time;durP1;ratioP1;P1;durP2;ratioP2;P2;SDS_P1;SDS_P2;PMS_P1;PMS_P2;Temp;Humidity;BMP_temperature;BMP_pressure;BME280_temperature;BME280_humidity;BME280_pressure;Samples;Min_cycle;Max_cycle;Signal;HPM_P1;HPM_P2
2022/11/22 00:00:50;;;;;;;4.93;1.70;;;;;;;6.57;51.93;98860.94;5042720;28;20556;-81
2022/11/22 00:03:20;;;;;;;4.65;1.63;;;;;;;6.58;51.76;98857.22;5045984;28;20057;-80
2022/11/22 00:05:47;;;;;;;3.08;1.42;;;;;;;6.56;51.74;98851.06;5053339;28;20049;-80
2022/11/22 00:08:15;;;;;;;2.85;1.30;;;;;;;6.55;52.05;98850.22;5043045;28;20049;-81
2022/11/22 00:10:43;;;;;;;2.80;1.40;;;;;;;6.55;51.92;98842.06;5052841;28;20296;-82
2022/11/22 00:13:13;;;;;;;2.75;1.50;;;;;;;6.52;51.82;98836.13;5056106;28;20041;-82
2022/11/22 00:15:58;;;;;;;4.55;1.35;;;;;;;6.55;52.47;98846.66;5042735;28;20238;-81
2022/11/22 00:18:27;;;;;;;3.20;1.48;;;;;;;6.53;52.15;98852.22;5044061;28;20051;-81
2022/11/22 00:20:57;;;;;;;3.65;1.60;;;;;;;6.52;51.98;98847.84;5042572;28;20053;-81
2022/11/22 00:23:25;;;;;;;2.70;1.35;;;;;;;6.52;52.13;98841.53;5052087;28;20555;-82
2022/11/22 00:25:52;;;;;;;3.50;1.40;;;;;;;6.52;52.22;98847.84;5045851;28;20044;-82
2022/11/22 00:28:20;;;;;;;3.47;1.65;;;;;;;6.52;51.84;98833.41;5051713;28;20561;-81
2022/11/22 00:30:48;;;;;;;4.18;1.65;;;;;;;6.50;52.01;98833.53;5039800;28;20048;-82
2022/11/22 00:33:16;;;;;;;3.08;1.75;;;;;;;6.51;52.05;98829.81;5049316;28;20148;-81
2022/11/22 00:35:46;;;;;;;3.20;1.60;;;;;;;6.50;52.38;98832.69;5049732;28;20431;-80
2022/11/22 00:38:14;;;;;;;3.17;1.50;;;;;;;6.49;52.39;98829.13;5050027;28;20040;-82
2022/11/22 00:40:43;;;;;;;4.88;1.92;;;;;;;6.50;52.34;98841.69;5047681;28;20037;-81
2022/11/22 00:43:11;;;;;;;3.45;1.38;;;;;;;6.50;52.58;98835.41;5049461;28;20401;-82
2022/11/22 00:45:41;;;;;;;4.35;1.65;;;;;;;6.50;52.53;98838.13;5045657;28;20053;-82
2022/11/22 00:48:09;;;;;;;4.45;1.77;;;;;;;6.49;52.44;98844.56;5048530;28;20045;-82
2022/11/22 00:50:37;;;;;;;3.10;1.60;;;;;;;6.48;52.68;98837.41;5053879;28;20045;-83
2022/11/22 00:53:06;;;;;;;3.92;1.63;;;;;;;6.48;52.76;98854.59;5052164;28;20045;-82
2022/11/22 00:55:34;;;;;;;6.10;1.80;;;;;;;6.45;52.92;98847.59;5040042;28;20045;-82
2022/11/22 00:58:02;;;;;;;7.28;2.40;;;;;;;6.46;52.54;98845.72;5045310;28;20045;-82
2022/11/22 01:00:30;;;;;;;3.65;1.70;;;;;;;6.49;52.88;98844.56;5043456;28;20073;-81
2022/11/22 01:02:58;;;;;;;4.78;1.90;;;;;;;6.48;52.83;98845.56;5044049;28;20045;-82
2022/11/22 01:05:26;;;;;;;3.97;1.60;;;;;;;6.47;52.82;98847.44;5044516;28;20067;-82
2022/11/22 01:07:54;;;;;;;4.47;1.67;;;;;;;6.49;52.98;98847.28;5048205;28;20512;-81
2022/11/22 01:10:24;;;;;;;4.10;1.85;;;;;;;6.48;53.18;98846.44;5046710;28;20045;-82
2022/11/22 01:12:52;;;;;;;3.60;1.40;;;;;;;6.48;53.25;98857.31;5047305;28;20530;-81
2022/11/22 01:15:19;;;;;;;3.05;1.40;;;;;;;6.50;52.97;98859.88;5045261;28;20052;-82
2022/11/22 01:17:47;;;;;;;3.63;1.48;;;;;;;6.50;52.88;98860.72;5046364;28;20128;-81
2022/11/22 01:20:15;;;;;;;2.92;1.60;;;;;;;6.50;52.93;98860.72;5049137;28;20071;-81
2022/11/22 01:22:43;;;;;;;2.95;1.30;;;;;;;6.50;53.30;98871.59;5046483;28;20060;-81
2022/11/22 01:25:11;;;;;;;3.05;1.60;;;;;;;6.51;53.09;98878.75;5042323;28;20038;-81
2022/11/22 01:27:40;;;;;;;4.18;1.50;;;;;;;6.53;53.32;98878.59;5047934;28;20053;-82
2022/11/22 01:30:09;;;;;;;3.70;1.48;;;;;;;6.51;53.34;98861.56;5047497;28;20392;-82
2022/11/22 01:32:37;;;;;;;2.80;1.30;;;;;;;6.52;53.08;98861.44;5042263;28;20060;-81
2022/11/22 01:35:06;;;;;;;3.53;1.50;;;;;;;6.53;53.25;98871.25;5037391;28;20045;-82
2022/11/22 01:37:33;;;;;;;3.08;1.42;;;;;;;6.53;53.21;98865.81;5039833;28;20052;-81
2022/11/22 01:40:01;;;;;;;3.35;1.63;;;;;;;6.54;53.22;98864.81;5045801;28;20041;-81
2022/11/22 01:42:42;;;;;;;4.40;1.48;;;;;;;6.55;53.84;98861.09;5047058;28;20057;-82
2022/11/22 01:45:43;;;;;;;3.22;1.55;;;;;;;6.55;53.80;98861.09;5036773;28;20049;-82
2022/11/22 01:48:31;;;;;;;2.00;1.38;;;;;;;6.56;53.73;98865.53;5037040;22;20542;-71
2022/11/22 01:51:03;;;;;;;3.10;1.30;;;;;;;6.55;53.42;98854.81;5002978;28;20056;-71
2022/11/22 01:53:35;;;;;;;3.20;1.60;;;;;;;6.56;53.25;98870.94;5004062;28;20108;-70
2022/11/22 01:56:07;;;;;;;4.13;1.50;;;;;;;6.56;53.49;98875.53;5013725;28;20466;-71
2022/11/22 01:58:40;;;;;;;3.90;1.40;;;;;;;6.56;53.70;98879.09;5004344;28;20053;-71
2022/11/22 02:01:08;;;;;;;4.60;1.30;;;;;;;6.58;53.49;98878.97;5002601;28;20054;-72
2022/11/22 02:03:41;;;;;;;4.13;1.50;;;;;;;6.60;53.54;98887.81;5009957;28;20057;-71
2022/11/22 02:06:10;;;;;;;;;;;;;;;6.37;54.44;98890.13;5008591;28;20042;-71
2022/11/22 02:08:42;;;;;;;3.10;1.27;;;;;;;6.57;53.64;98899.00;5012404;28;19990;-71
2022/11/22 02:11:12;;;;;;;3.35;1.35;;;;;;;6.58;53.66;98898.84;5007479;28;20125;-70
2022/11/22 02:13:43;;;;;;;3.70;1.70;;;;;;;6.62;53.53;98883.06;5007542;28;20037;-70
2022/11/22 02:16:12;;;;;;;3.03;1.50;;;;;;;6.62;53.53;98891.19;5006521;28;20050;-71
2022/11/22 02:18:40;;;;;;;4.57;1.60;;;;;;;6.63;53.45;98899.22;5009120;28;20445;-72
2022/11/22 02:21:08;;;;;;;3.35;1.60;;;;;;;6.63;53.65;98903.78;4997828;28;20455;-71
2022/11/22 02:23:47;;;;;;;4.07;1.50;;;;;;;6.65;53.78;98902.63;5009184;28;20475;-70
2022/11/22 02:26:16;;;;;;;4.57;1.50;;;;;;;6.64;53.73;98900.91;5008787;28;20049;-72
2022/11/22 02:28:44;;;;;;;3.25;1.30;;;;;;;6.65;53.71;98901.78;5008276;28;20584;-71
2022/11/22 02:31:35;;;;;;;2.88;1.40;;;;;;;6.66;53.84;98901.63;5005228;28;20045;-72
2022/11/22 02:34:03;;;;;;;2.60;1.40;;;;;;;6.63;53.70;98909.22;5011050;28;20041;-71
2022/11/22 02:36:35;;;;;;;4.75;1.40;;;;;;;6.67;53.81;98907.91;5014247;28;20045;-70
2022/11/22 02:39:03;;;;;;;2.35;1.30;;;;;;;6.65;53.69;98905.34;5007449;28;20538;-72
2022/11/22 02:41:32;;;;;;;4.45;1.20;;;;;;;6.67;53.20;98913.34;5014173;28;20037;-71
2022/11/22 02:44:00;;;;;;;3.65;1.40;;;;;;;6.65;53.54;98913.50;5007094;28;20049;-71
2022/11/22 02:46:28;;;;;;;3.20;1.40;;;;;;;6.65;53.36;98926.25;5007394;28;20558;-71
2022/11/22 02:48:56;;;;;;;3.08;1.35;;;;;;;6.65;53.39;98927.09;5011436;28;20045;-70
2022/11/22 02:51:25;;;;;;;3.97;1.33;;;;;;;6.65;53.57;98924.38;5008890;28;20049;-70
2022/11/22 02:53:55;;;;;;;3.97;1.65;;;;;;;6.64;53.19;98925.38;5017398;28;20387;-69
2022/11/22 02:56:23;;;;;;;2.85;1.10;;;;;;;6.64;53.38;98928.09;5010604;28;20053;-70
2022/11/22 02:58:52;;;;;;;3.13;1.20;;;;;;;6.65;53.41;98921.66;5019755;28;20052;-71
2022/11/22 03:01:20;;;;;;;2.53;1.20;;;;;;;6.63;53.38;98928.25;5006373;28;20042;-70
2022/11/22 03:03:48;;;;;;;3.17;1.25;;;;;;;6.63;53.36;98922.81;5015554;28;20664;-70
2022/11/22 03:06:16;;;;;;;4.13;1.17;;;;;;;6.61;53.14;98917.53;5009617;28;20107;-70
2022/11/22 03:08:47;;;;;;;2.60;1.20;;;;;;;6.62;53.12;98927.41;5007233;28;20037;-71
2022/11/22 03:11:22;;;;;;;3.50;1.20;;;;;;;6.61;53.17;98930.31;4966492;28;20100;-70
2022/11/22 03:13:52;;;;;;;2.38;1.38;;;;;;;6.62;53.30;98938.28;5006722;28;20041;-70
2022/11/22 03:16:20;;;;;;;5.28;1.73;;;;;;;6.59;53.12;98935.88;5009071;28;20087;-70
2022/11/22 03:18:47;;;;;;;3.20;1.45;;;;;;;6.60;53.16;98944.91;5016315;28;20061;-69
2022/11/22 03:21:15;;;;;;;2.85;1.30;;;;;;;6.58;53.19;98942.31;5012709;28;20064;-71
2022/11/22 03:23:43;;;;;;;4.05;1.77;;;;;;;6.56;53.26;98941.63;5006919;28;20498;-70
2022/11/22 03:26:12;;;;;;;4.03;1.55;;;;;;;6.55;53.01;98937.19;5008648;28;20125;-69
2022/11/22 03:28:40;;;;;;;2.60;1.30;;;;;;;6.55;53.26;98955.34;5006908;28;20453;-70
2022/11/22 03:31:09;;;;;;;2.72;1.50;;;;;;;6.55;53.03;98947.19;5001541;28;20131;-71
2022/11/22 03:33:37;;;;;;;3.08;1.40;;;;;;;6.53;53.32;98966.38;5009373;28;20103;-70
2022/11/22 03:36:05;;;;;;;3.28;1.50;;;;;;;6.52;53.14;98964.69;5009705;28;20034;-69
2022/11/22 03:38:34;;;;;;;6.22;1.95;;;;;;;6.51;53.02;98965.69;5010448;28;20076;-70
2022/11/22 03:41:02;;;;;;;2.13;1.15;;;;;;;6.48;53.29;98965.13;5007194;28;20403;-70
2022/11/22 03:43:30;;;;;;;3.08;1.33;;;;;;;6.48;53.19;98971.44;5005773;28;20046;-71
2022/11/22 03:45:57;;;;;;;3.33;1.40;;;;;;;6.47;53.13;98974.31;5003796;28;20045;-70
2022/11/22 03:48:27;;;;;;;3.50;1.45;;;;;;;6.49;53.32;98980.44;5013136;28;20315;-70
2022/11/22 03:51:02;;;;;;;3.40;1.30;;;;;;;6.47;53.07;98977.88;5007873;28;20057;-71
2022/11/22 03:53:30;;;;;;;3.63;1.30;;;;;;;6.45;53.25;98985.31;5003772;28;20120;-69
2022/11/22 03:55:58;;;;;;;2.95;1.35;;;;;;;6.45;53.35;98977.16;5008629;28;20046;-70
2022/11/22 03:58:25;;;;;;;3.88;1.50;;;;;;;6.44;53.17;98976.34;5006957;28;20046;-71
2022/11/22 04:00:53;;;;;;;5.40;1.40;;;;;;;6.45;53.27;98982.59;5000075;28;20054;-71
2022/11/22 04:03:21;;;;;;;3.63;1.58;;;;;;;6.44;53.24;98975.47;5012884;28;20116;-69
2022/11/22 04:05:50;;;;;;;3.58;1.52;;;;;;;6.45;53.18;98985.31;5015544;28;20057;-71
2022/11/22 04:08:18;;;;;;;3.85;1.33;;;;;;;6.44;53.37;98983.63;5001569;28;20056;-69
2022/11/22 04:10:48;;;;;;;5.07;1.40;;;;;;;6.44;53.28;98976.34;5001852;28;20073;-69
2022/11/22 04:13:16;;;;;;;3.47;1.50;;;;;;;6.42;53.22;98988.38;5006672;28;20100;-71
2022/11/22 04:15:43;;;;;;;3.47;1.27;;;;;;;6.41;52.92;98990.22;5005046;28;20049;-70
2022/11/22 04:18:11;;;;;;;4.30;1.50;;;;;;;6.40;53.05;98987.66;5014736;28;20054;-71
2022/11/22 04:23:27;;;;;;;3.53;1.30;;;;;;;6.39;53.35;98994.09;5014629;28;20072;-70
2022/11/22 04:25:59;;;;;;;2.63;1.00;;;;;;;6.36;53.14;98995.28;5011483;28;20673;-70
2022/11/22 04:28:27;;;;;;;3.92;1.25;;;;;;;6.36;53.07;98995.28;5016073;28;20041;-71
2022/11/22 04:34:01;;;;;;;3.70;1.52;;;;;;;6.34;53.03;98996.41;5009064;28;20046;-71
2022/11/22 04:36:28;;;;;;;4.03;1.42;;;;;;;6.34;53.07;99008.16;5015187;28;20050;-71
2022/11/22 04:38:58;;;;;;;5.68;1.65;;;;;;;6.34;53.31;99010.88;5011783;28;20645;-69
2022/11/22 04:41:26;;;;;;;4.68;1.35;;;;;;;6.33;52.98;99009.16;5014555;28;20698;-70
2022/11/22 04:46:39;;;;;;;6.28;1.42;;;;;;;6.31;52.97;99005.72;5003725;28;20113;-71
2022/11/22 04:49:07;;;;;;;3.60;1.40;;;;;;;6.32;52.81;99004.72;5006923;28;20069;-71
2022/11/22 04:54:21;;;;;;;5.15;1.30;;;;;;;6.30;52.78;99004.00;4984086;28;20074;-71
2022/11/22 04:56:49;;;;;;;5.68;1.80;;;;;;;6.27;52.96;99009.78;5008409;28;20046;-71
2022/11/22 04:59:17;;;;;;;4.28;1.63;;;;;;;6.28;52.78;99011.44;5017122;28;20136;-71
2022/11/22 05:01:44;;;;;;;3.47;1.65;;;;;;;6.27;52.84;99014.34;5003891;28;20438;-69
2022/11/22 05:04:12;;;;;;;4.55;1.90;;;;;;;6.24;52.73;99009.19;5004057;28;20128;-71
2022/11/22 05:06:40;;;;;;;5.78;1.80;;;;;;;6.22;52.59;99013.91;5007879;28;20045;-71
2022/11/22 05:09:08;;;;;;;6.00;1.77;;;;;;;6.21;52.38;99017.66;5011391;28;20502;-71
2022/11/22 05:11:37;;;;;;;3.55;1.70;;;;;;;6.18;52.92;99021.53;5013985;28;20075;-70
2022/11/22 05:14:06;;;;;;;4.80;2.00;;;;;;;6.15;52.50;99019.13;5010811;28;20100;-71
2022/11/22 05:16:33;;;;;;;7.25;1.88;;;;;;;6.13;52.66;99012.97;5005421;28;20526;-70
2022/11/22 05:19:01;;;;;;;4.82;1.75;;;;;;;6.12;52.53;99013.16;5003124;28;20042;-71
2022/11/22 05:21:29;;;;;;;4.15;1.95;;;;;;;6.11;52.93;99020.44;5015276;28;20050;-71
2022/11/22 05:23:57;;;;;;;4.22;1.90;;;;;;;6.09;52.81;99010.72;5008157;28;20046;-71
2022/11/22 05:26:26;;;;;;;3.20;1.80;;;;;;;6.07;52.81;99022.59;5007293;28;20042;-70
2022/11/22 05:28:56;;;;;;;4.60;1.83;;;;;;;6.05;52.88;99027.31;5012279;28;20061;-70
2022/11/22 05:31:26;;;;;;;3.90;1.70;;;;;;;6.04;52.58;99022.00;5003224;28;20056;-71
2022/11/22 05:33:56;;;;;;;3.40;1.80;;;;;;;6.01;52.73;99019.63;5016898;28;20073;-70
2022/11/22 05:36:25;;;;;;;4.13;1.75;;;;;;;5.99;52.40;99027.06;5006439;28;20050;-69
2022/11/22 05:38:54;;;;;;;4.95;1.92;;;;;;;5.98;52.64;99028.06;5012212;28;20053;-69
2022/11/22 05:41:21;;;;;;;4.10;1.90;;;;;;;5.96;52.88;99030.06;5010196;28;20053;-71
2022/11/22 05:43:50;;;;;;;4.30;2.25;;;;;;;5.95;52.76;99031.91;5004618;28;20049;-69
2022/11/22 05:46:21;;;;;;;4.20;1.83;;;;;;;5.95;52.84;99029.19;5005079;28;20044;-70
2022/11/22 05:48:53;;;;;;;4.97;2.13;;;;;;;5.95;52.87;99039.25;5013499;28;20076;-70
2022/11/22 05:51:23;;;;;;;4.15;1.95;;;;;;;5.92;52.88;99029.50;5009357;28;20037;-71
2022/11/22 05:53:54;;;;;;;4.55;1.80;;;;;;;5.92;53.11;99043.09;5009524;28;20115;-71
2022/11/22 05:56:24;;;;;;;3.65;1.83;;;;;;;5.93;53.01;99039.38;5004413;28;20102;-71
2022/11/22 05:58:53;;;;;;;4.15;2.15;;;;;;;5.93;53.07;99041.22;5009114;28;20141;-71
2022/11/22 06:01:24;;;;;;;5.85;1.95;;;;;;;5.92;52.92;99045.81;4997066;28;20046;-71
2022/11/22 06:03:52;;;;;;;4.13;2.00;;;;;;;5.91;52.68;99049.53;5009149;28;20122;-72
2022/11/22 06:06:20;;;;;;;5.38;1.75;;;;;;;5.90;52.54;99041.53;5006635;28;20041;-69
2022/11/22 06:08:49;;;;;;;8.13;2.42;;;;;;;5.89;52.55;99047.94;5002515;28;20099;-68
2022/11/22 06:11:20;;;;;;;5.00;1.83;;;;;;;5.89;52.79;99059.66;5005141;28;20100;-72
2022/11/22 06:13:50;;;;;;;3.65;1.60;;;;;;;5.88;52.90;99048.94;5002142;28;20730;-72
2022/11/22 06:16:18;;;;;;;3.42;1.60;;;;;;;5.88;53.03;99057.09;5002741;28;20088;-72
2022/11/22 06:18:48;;;;;;;6.22;1.63;;;;;;;5.89;52.96;99053.38;5006498;28;20046;-72
2022/11/22 06:21:17;;;;;;;5.25;1.70;;;;;;;5.88;52.88;99049.81;5022439;28;20125;-72
2022/11/22 06:23:45;;;;;;;4.10;1.40;;;;;;;5.87;52.97;99058.13;5001038;28;20145;-72
2022/11/22 06:26:16;;;;;;;5.18;1.73;;;;;;;5.88;52.96;99057.09;5003688;28;20131;-72
2022/11/22 06:28:44;;;;;;;5.63;1.40;;;;;;;5.87;52.65;99045.38;5004499;28;20053;-73
2022/11/22 06:31:14;;;;;;;5.18;1.65;;;;;;;5.87;52.84;99053.53;5003791;28;20061;-72
2022/11/22 06:33:42;;;;;;;6.70;1.88;;;;;;;5.87;52.75;99047.28;5008982;28;20127;-73
2022/11/22 06:36:14;;;;;;;6.15;2.00;;;;;;;5.88;52.31;99048.94;5009715;28;20054;-72
2022/11/22 06:38:43;;;;;;;5.50;1.75;;;;;;;5.86;52.38;99048.28;5006453;28;20058;-72
2022/11/22 06:41:12;;;;;;;5.43;2.33;;;;;;;5.84;52.45;99042.97;4983777;28;20060;-72
2022/11/22 06:43:42;;;;;;;4.32;1.80;;;;;;;5.83;52.34;99049.41;5000098;28;20050;-72
2022/11/22 06:46:16;;;;;;;6.07;2.00;;;;;;;5.83;52.65;99051.25;5002887;28;20057;-71
2022/11/22 06:48:44;;;;;;;6.78;1.85;;;;;;;5.81;52.27;99050.56;5003608;28;20118;-72
2022/11/22 06:51:16;;;;;;;4.07;1.90;;;;;;;5.81;52.75;99051.41;5006521;28;20128;-73
2022/11/22 06:53:44;;;;;;;4.85;2.03;;;;;;;5.78;52.65;99054.44;5008433;28;20056;-71
2022/11/22 06:56:18;;;;;;;7.50;1.98;;;;;;;5.80;52.63;99065.13;5010412;28;20057;-72
2022/11/22 06:58:47;;;;;;;5.13;1.98;;;;;;;5.80;52.87;99065.13;5012546;28;20657;-72
2022/11/22 07:01:17;;;;;;;6.10;2.28;;;;;;;5.80;52.70;99065.13;4995246;28;20415;-72
2022/11/22 07:03:46;;;;;;;6.75;1.80;;;;;;;5.79;52.91;99075.13;5005342;28;20065;-72
2022/11/22 07:06:16;;;;;;;6.03;2.00;;;;;;;5.80;52.59;99065.13;5005876;28;20541;-75
2022/11/22 07:08:46;;;;;;;4.13;1.83;;;;;;;5.78;52.65;99067.16;5004000;28;20529;-71
2022/11/22 07:11:16;;;;;;;9.80;2.28;;;;;;;5.77;52.53;99077.16;5007673;28;20119;-72
2022/11/22 07:13:44;;;;;;;6.13;2.42;;;;;;;5.76;52.49;99078.16;5007072;28;20049;-72
2022/11/22 07:16:14;;;;;;;5.47;2.00;;;;;;;5.76;52.34;99082.72;4999146;28;20128;-72
2022/11/22 07:18:42;;;;;;;8.73;2.03;;;;;;;5.74;52.09;99085.59;5007845;28;20495;-72
2022/11/22 07:21:12;;;;;;;5.03;1.88;;;;;;;5.75;52.33;99087.28;5006723;28;20050;-72
2022/11/22 07:23:43;;;;;;;5.15;2.05;;;;;;;5.74;52.30;99077.44;5007632;28;20411;-72
2022/11/22 07:26:12;;;;;;;6.53;1.90;;;;;;;5.73;52.30;99081.16;5004290;28;20042;-71
2022/11/22 07:28:40;;;;;;;5.78;2.00;;;;;;;5.71;52.36;99093.19;5009723;28;20099;-72
2022/11/22 07:31:10;;;;;;;4.10;1.70;;;;;;;5.72;52.10;99092.16;5005878;28;20085;-74
2022/11/22 07:33:38;;;;;;;7.70;2.08;;;;;;;5.70;52.26;99105.91;5010813;28;20050;-71
2022/11/22 07:36:07;;;;;;;4.75;2.10;;;;;;;5.71;52.25;99090.47;5007813;28;20560;-71
2022/11/22 07:38:35;;;;;;;4.63;1.90;;;;;;;5.71;52.36;99095.91;5008462;28;20046;-73
2022/11/22 07:41:05;;;;;;;5.57;2.00;;;;;;;5.73;52.17;99102.00;5013956;28;20085;-73
2022/11/22 07:43:33;;;;;;;5.72;1.90;;;;;;;5.73;52.50;99104.72;5016644;28;20049;-73
2022/11/22 07:46:02;;;;;;;7.05;2.13;;;;;;;5.73;52.44;99097.44;4996214;28;20038;-73
2022/11/22 07:48:30;;;;;;;7.80;2.20;;;;;;;5.72;52.45;99100.28;5010979;28;20451;-73
2022/11/22 07:51:12;;;;;;;5.05;1.95;;;;;;;5.74;52.11;99096.44;5117173;27;20407;-73
2022/11/22 07:53:40;;;;;;;6.32;2.28;;;;;;;5.74;52.30;99103.72;5115479;27;20499;-72
2022/11/22 07:56:08;;;;;;;6.60;1.90;;;;;;;5.76;52.47;99094.44;5082817;27;20054;-72
2022/11/22 07:58:36;;;;;;;7.80;2.30;;;;;;;5.77;52.27;99088.00;5076114;28;20040;-72
2022/11/22 08:01:06;;;;;;;4.15;1.75;;;;;;;5.79;52.09;99091.41;5056401;28;20229;-72
2022/11/22 08:03:34;;;;;;;7.80;1.80;;;;;;;5.80;52.41;99092.28;5066602;28;20095;-72
2022/11/22 08:06:03;;;;;;;6.00;2.08;;;;;;;5.81;52.11;99099.41;5073476;28;20044;-73
2022/11/22 08:08:33;;;;;;;4.53;1.95;;;;;;;5.83;52.24;99100.13;5059033;28;20311;-72
2022/11/22 08:11:01;;;;;;;6.50;2.05;;;;;;;5.83;52.08;99101.00;5054877;28;20494;-72
2022/11/22 08:13:31;;;;;;;4.60;2.05;;;;;;;5.85;52.04;99109.84;5073041;28;20049;-72
2022/11/22 08:16:02;;;;;;;6.95;2.38;;;;;;;5.87;51.96;99107.00;5062581;28;20041;-71
2022/11/22 08:18:32;;;;;;;7.70;2.00;;;;;;;5.87;52.14;99120.56;5061937;28;20520;-72
2022/11/22 08:21:08;;;;;;;4.97;1.83;;;;;;;5.91;52.21;99119.25;5061798;28;20525;-72
2022/11/22 08:23:39;;;;;;;4.60;1.85;;;;;;;5.91;52.16;99113.81;5053544;28;20041;-72
2022/11/22 08:26:08;;;;;;;5.32;1.98;;;;;;;5.91;52.17;99114.69;5073597;28;20512;-72
2022/11/22 08:28:36;;;;;;;6.43;1.75;;;;;;;5.92;52.25;99120.97;5077096;28;20050;-72
2022/11/22 08:31:07;;;;;;;5.10;1.80;;;;;;;5.95;52.15;99126.94;5046718;28;20041;-72
2022/11/22 08:33:35;;;;;;;4.28;1.50;;;;;;;5.95;52.18;99126.13;5055529;28;20051;-72
2022/11/22 08:36:03;;;;;;;3.70;1.58;;;;;;;5.98;52.29;99121.22;5062161;28;20505;-71
2022/11/22 08:38:32;;;;;;;5.75;1.90;;;;;;;6.02;52.13;99127.25;5058006;28;20073;-72
2022/11/22 08:41:02;;;;;;;2.92;1.52;;;;;;;6.05;52.49;99125.06;5051390;28;20045;-72
2022/11/22 08:43:30;;;;;;;3.78;1.48;;;;;;;6.09;52.44;99130.22;5060467;28;20475;-72
2022/11/22 08:46:00;;;;;;;6.88;1.80;;;;;;;6.13;52.11;99131.63;5052458;28;20068;-73
2022/11/22 08:48:30;;;;;;;6.43;2.05;;;;;;;6.16;52.03;99132.19;5061046;28;20099;-73
2022/11/22 08:51:00;;;;;;;5.88;2.22;;;;;;;6.20;52.09;99133.59;5058568;28;20052;-72
2022/11/22 08:53:29;;;;;;;9.20;2.50;;;;;;;6.23;52.28;99122.44;5055152;28;20041;-72
2022/11/22 08:55:59;;;;;;;5.03;2.10;;;;;;;6.28;52.24;99133.69;5062341;28;20043;-72
2022/11/22 08:58:30;;;;;;;6.72;1.95;;;;;;;6.33;52.20;99133.28;5069000;28;20055;-72
2022/11/22 09:01:04;;;;;;;5.30;1.80;;;;;;;6.37;51.72;99127.38;5053556;28;20045;-71
2022/11/22 09:03:32;;;;;;;6.82;2.08;;;;;;;6.39;52.34;99129.94;5047836;28;20116;-71
2022/11/22 09:06:01;;;;;;;6.10;1.85;;;;;;;6.47;52.26;99124.63;5043699;28;20103;-72
2022/11/22 09:08:49;;;;;;;4.57;1.60;;;;;;;6.53;52.57;99132.16;5041942;28;20045;-72
2022/11/22 09:11:35;;;;;;;5.13;1.70;;;;;;;6.61;52.99;99134.16;5046126;28;20135;-75
2022/11/22 09:14:05;;;;;;;4.25;1.48;;;;;;;6.72;52.43;99142.09;5047180;28;20115;-70
2022/11/22 09:16:32;;;;;;;5.47;1.40;;;;;;;6.79;52.49;99141.34;5042233;28;20044;-71
2022/11/22 09:19:00;;;;;;;4.55;1.40;;;;;;;6.89;52.35;99154.91;5044806;28;20056;-71
2022/11/22 09:21:29;;;;;;;4.22;1.67;;;;;;;6.97;52.51;99149.56;5046866;28;20067;-71
2022/11/22 09:23:57;;;;;;;5.05;1.88;;;;;;;7.06;52.12;99148.63;5044856;28;20045;-72
2022/11/22 09:26:25;;;;;;;3.83;1.40;;;;;;;7.12;51.50;99149.88;5044354;28;20140;-72
2022/11/22 09:28:53;;;;;;;4.93;1.50;;;;;;;7.17;51.63;99144.84;5059746;28;20037;-71
2022/11/22 09:31:24;;;;;;;4.25;1.60;;;;;;;7.23;50.82;99148.81;5037330;28;20041;-71
2022/11/22 09:33:52;;;;;;;6.82;1.60;;;;;;;7.24;50.79;99148.66;5045373;28;20069;-70
2022/11/22 09:36:22;;;;;;;4.43;1.42;;;;;;;7.29;50.71;99148.19;5039312;28;20044;-70
2022/11/22 09:38:51;;;;;;;2.92;1.45;;;;;;;7.30;50.76;99155.34;5048220;28;20417;-72
2022/11/22 09:41:33;;;;;;;5.28;1.40;;;;;;;7.33;50.37;99164.06;5040080;28;20041;-72
2022/11/22 09:44:16;;;;;;;4.70;1.33;;;;;;;7.36;49.51;99160.16;5040351;28;20049;-71
2022/11/22 09:46:52;;;;;;;4.70;1.20;;;;;;;7.37;49.29;99164.59;5041417;28;20041;-72
2022/11/22 09:49:26;;;;;;;4.55;1.20;;;;;;;7.40;49.43;99154.25;5036165;28;20040;-71
2022/11/22 09:52:04;;;;;;;3.67;1.25;;;;;;;7.40;48.92;99156.13;5043768;28;20551;-71
2022/11/22 09:54:41;;;;;;;2.75;1.17;;;;;;;7.41;49.22;99153.25;5047728;28;20047;-71
2022/11/22 09:57:16;;;;;;;4.20;1.20;;;;;;;7.43;49.82;99161.28;5061503;28;20055;-72
2022/11/22 09:59:47;;;;;;;4.35;1.30;;;;;;;7.45;50.00;99148.34;5065730;28;20059;-72
2022/11/22 10:02:21;;;;;;;4.65;1.05;;;;;;;7.48;49.27;99146.16;5072322;28;20113;-71
2022/11/22 10:04:55;;;;;;;5.80;1.15;;;;;;;7.52;49.20;99152.13;5075070;28;20044;-71
2022/11/22 10:07:29;;;;;;;3.67;1.30;;;;;;;7.56;49.39;99142.66;5068948;28;20048;-70
2022/11/22 10:10:05;;;;;;;4.40;1.13;;;;;;;7.61;49.05;99134.88;5055061;28;20051;-70
2022/11/22 10:12:40;;;;;;;3.33;1.20;;;;;;;7.67;49.51;99138.84;5080524;28;20095;-71
2022/11/22 10:15:14;;;;;;;4.90;1.20;;;;;;;7.71;49.37;99142.94;5068199;28;20087;-70
2022/11/22 10:17:52;;;;;;;3.55;1.20;;;;;;;7.76;48.63;99127.00;5076032;28;20044;-71
2022/11/22 10:20:22;;;;;;;3.10;1.20;;;;;;;7.77;49.67;99140.44;5061434;28;20040;-71
2022/11/22 10:22:50;;;;;;;3.28;1.10;;;;;;;7.79;49.45;99132.97;5067438;28;20090;-71
2022/11/22 10:25:20;;;;;;;3.33;1.15;;;;;;;7.80;49.02;99123.78;5053773;28;20094;-70
2022/11/22 10:27:53;;;;;;;2.50;1.10;;;;;;;7.81;48.73;99120.06;5062172;28;20071;-70
2022/11/22 10:30:35;;;;;;;3.15;0.90;;;;;;;7.81;48.29;99124.66;5063596;28;20051;-71
2022/11/22 10:33:13;;;;;;;4.07;0.90;;;;;;;7.81;47.74;99111.03;5061750;28;20044;-71
2022/11/22 10:35:59;;;;;;;3.42;1.30;;;;;;;7.81;47.81;99108.31;5057403;28;20136;-70
2022/11/22 10:38:52;;;;;;;2.92;1.17;;;;;;;7.77;47.64;99120.53;5064764;28;20051;-74
2022/11/22 10:41:36;;;;;;;2.65;1.10;;;;;;;7.74;47.72;99107.25;5064378;28;20496;-72
2022/11/22 10:44:18;;;;;;;4.75;1.25;;;;;;;7.75;47.67;99108.97;5063256;28;20048;-74
2022/11/22 10:46:57;;;;;;;3.45;0.90;;;;;;;7.73;48.27;99111.84;5070772;28;20071;-66
2022/11/22 10:49:41;;;;;;;2.63;0.80;;;;;;;7.73;48.19;99091.91;5062231;28;20127;-66
2022/11/22 10:52:19;;;;;;;3.00;0.80;;;;;;;7.72;48.76;99099.22;5063132;28;20535;-66
2022/11/22 10:54:55;;;;;;;2.83;0.90;;;;;;;7.72;48.44;99085.63;5060292;28;20044;-66
2022/11/22 10:57:31;;;;;;;2.28;0.80;;;;;;;7.73;49.01;99086.47;5058785;28;20040;-66
2022/11/22 11:00:16;;;;;;;1.95;0.80;;;;;;;7.75;48.48;99090.75;5060881;28;20720;-66
2022/11/22 11:03:20;;;;;;;2.63;0.95;;;;;;;7.76;48.02;99083.44;5065623;28;20119;-66
2022/11/22 11:05:55;;;;;;;3.40;1.50;;;;;;;7.77;49.00;99080.53;5052102;28;20494;-66
2022/11/22 11:08:45;;;;;;;2.28;0.98;;;;;;;7.78;49.08;99067.78;5062779;28;20040;-66
2022/11/22 11:11:36;;;;;;;2.10;1.17;;;;;;;7.80;48.95;99074.78;5059642;28;20093;-66
2022/11/22 11:14:12;;;;;;;2.90;1.23;;;;;;;7.85;48.64;99074.28;5060647;28;20072;-66
2022/11/22 11:16:40;;;;;;;3.08;0.93;;;;;;;7.85;48.88;99069.69;5053856;28;20059;-66
2022/11/22 11:19:16;;;;;;;2.08;1.15;;;;;;;7.91;47.99;99070.94;5080130;28;20040;-66
2022/11/22 11:21:51;;;;;;;3.42;1.20;;;;;;;7.91;48.64;99070.94;5055770;28;20032;-66
2022/11/22 11:24:19;;;;;;;3.55;1.08;;;;;;;7.91;49.17;99081.84;5059050;28;20045;-66
2022/11/22 11:26:53;;;;;;;3.58;1.13;;;;;;;7.97;47.77;99083.91;5059499;28;20101;-66
2022/11/22 11:29:43;;;;;;;1.20;0.80;;;;;;;7.95;47.33;99065.00;5061394;28;20109;-72
2022/11/22 11:32:14;;;;;;;3.47;0.90;;;;;;;7.98;48.32;99061.09;5061736;28;20127;-72
2022/11/22 11:34:50;;;;;;;2.70;1.05;;;;;;;8.00;47.71;99069.97;5076882;28;20037;-71
2022/11/22 11:37:23;;;;;;;1.77;0.70;;;;;;;8.02;47.74;99073.38;5062379;28;20159;-71
2022/11/22 11:39:51;;;;;;;2.35;0.63;;;;;;;7.98;48.03;99071.13;5055311;28;20044;-72
2022/11/22 11:42:27;;;;;;;2.10;0.70;;;;;;;8.02;46.87;99067.06;5065112;28;20036;-70
2022/11/22 11:45:19;;;;;;;2.22;0.60;;;;;;;8.00;46.87;99071.84;5055707;28;20501;-71
2022/11/22 11:47:47;;;;;;;3.13;0.80;;;;;;;7.98;48.02;99065.69;5063222;28;20040;-71
2022/11/22 11:50:20;;;;;;;2.33;0.68;;;;;;;8.01;47.37;99062.66;5066062;28;20098;-70
2022/11/22 11:52:55;;;;;;;1.23;0.75;;;;;;;8.00;47.46;99060.94;5051931;28;20540;-71
2022/11/22 11:55:25;;;;;;;1.95;0.80;;;;;;;7.95;47.99;99058.69;5069274;28;20064;-70
2022/11/22 11:57:53;;;;;;;1.23;0.63;;;;;;;7.98;47.51;99069.28;5063210;28;20421;-71
2022/11/22 12:00:26;;;;;;;0.75;0.60;;;;;;;7.99;47.33;99065.53;5073994;28;20128;-69
2022/11/22 12:02:58;;;;;;;;;;;;;;;7.73;47.82;99049.19;5062028;28;20819;-71
2022/11/22 12:05:29;;;;;;;2.53;1.13;;;;;;;7.94;47.84;99056.97;5054825;28;20447;-72
2022/11/22 12:08:00;;;;;;;3.88;1.40;;;;;;;7.98;47.59;99052.94;5064854;28;20152;-71
2022/11/22 12:10:32;;;;;;;5.25;2.13;;;;;;;7.99;47.72;99051.91;5065343;28;20045;-76